sensor_id;sensor_type;location;lat;lon;timestamp;pressure;altitude;pressure_sealevel;temperature;humidity
69171;BME280;56279;47.902;12.308;2023-06-01T00:01:10;95423.09;;;15.27;71.34
69171;BME280;56279;47.902;12.308;2023-06-01T00:03:14;95420.28;;;15.23;71.49
69171;BME280;56279;47.902;12.308;2023-06-01T00:05:16;95424.31;;;15.20;71.71
69171;BME280;56279;47.902;12.308;2023-06-01T00:07:17;95418.53;;;15.18;71.61
69171;BME280;56279;47.902;12.308;2023-06-01T00:09:18;95416.47;;;15.15;71.73
69171;BME280;56279;47.902;12.308;2023-06-01T00:11:20;95414.41;;;15.12;72.12
69171;BME280;56279;47.902;12.308;2023-06-01T00:13:22;95409.72;;;15.09;72.00
69171;BME280;56279;47.902;12.308;2023-06-01T00:15:24;95411.91;;;15.07;71.87
69171;BME280;56279;47.902;12.308;2023-06-01T00:17:25;95418.59;;;15.05;72.39
69171;BME280;56279;47.902;12.308;2023-06-01T00:19:26;95419.50;;;15.00;72.68
69171;BME280;56279;47.902;12.308;2023-06-01T00:21:28;95422.75;;;14.97;72.82
69171;BME280;56279;47.902;12.308;2023-06-01T00:23:29;95424.16;;;14.95;72.76
69171;BME280;56279;47.902;12.308;2023-06-01T00:25:31;95415.97;;;14.91;72.88
69171;BME280;56279;47.902;12.308;2023-06-01T00:27:32;95431.75;;;14.88;73.16
69171;BME280;56279;47.902;12.308;2023-06-01T00:29:33;95427.03;;;14.85;73.24
69171;BME280;56279;47.902;12.308;2023-06-01T00:31:34;95420.75;;;14.81;73.03
69171;BME280;56279;47.902;12.308;2023-06-01T00:33:36;95421.06;;;14.79;73.09
69171;BME280;56279;47.902;12.308;2023-06-01T00:35:37;95418.69;;;14.78;73.12
69171;BME280;56279;47.902;12.308;2023-06-01T00:37:38;95426.97;;;14.76;73.26
69171;BME280;56279;47.902;12.308;2023-06-01T00:39:39;95428.03;;;14.75;73.22
69171;BME280;56279;47.902;12.308;2023-06-01T00:41:41;95417.25;;;14.72;73.34
69171;BME280;56279;47.902;12.308;2023-06-01T00:43:42;95420.22;;;14.70;73.71
69171;BME280;56279;47.902;12.308;2023-06-01T00:45:43;95418.41;;;14.66;73.77
69171;BME280;56279;47.902;12.308;2023-06-01T00:47:45;95415.59;;;14.62;73.98
69171;BME280;56279;47.902;12.308;2023-06-01T00:49:47;95414.63;;;14.58;74.38
69171;BME280;56279;47.902;12.308;2023-06-01T00:51:48;95415.53;;;14.53;74.73
69171;BME280;56279;47.902;12.308;2023-06-01T00:53:50;95405.78;;;14.49;74.56
69171;BME280;56279;47.902;12.308;2023-06-01T00:55:51;95411.69;;;14.46;74.57
69171;BME280;56279;47.902;12.308;2023-06-01T00:57:54;95412.28;;;14.43;74.65
69171;BME280;56279;47.902;12.308;2023-06-01T00:59:57;95402.75;;;14.42;74.60
69171;BME280;56279;47.902;12.308;2023-06-01T01:01:58;95408.34;;;14.40;74.91
69171;BME280;56279;47.902;12.308;2023-06-01T01:03:59;95417.69;;;14.38;74.83
69171;BME280;56279;47.902;12.308;2023-06-01T01:06:07;95411.09;;;14.35;74.98
69171;BME280;56279;47.902;12.308;2023-06-01T01:08:18;95411.41;;;14.34;74.67
69171;BME280;56279;47.902;12.308;2023-06-01T01:10:29;95412.00;;;14.31;75.12
69171;BME280;56279;47.902;12.308;2023-06-01T01:12:56;95410.03;;;14.23;75.13
69171;BME280;56279;47.902;12.308;2023-06-01T01:15:07;95412.78;;;14.18;75.75
69171;BME280;56279;47.902;12.308;2023-06-01T01:17:20;95410.22;;;14.13;75.62
69171;BME280;56279;47.902;12.308;2023-06-01T01:19:49;95416.13;;;14.10;75.65
69171;BME280;56279;47.902;12.308;2023-06-01T01:22:07;95418.78;;;14.10;75.53
69171;BME280;56279;47.902;12.308;2023-06-01T01:24:37;95420.16;;;14.07;75.27
69171;BME280;56279;47.902;12.308;2023-06-01T01:29:08;95415.56;;;13.99;75.79
69171;BME280;56279;47.902;12.308;2023-06-01T01:31:17;95412.69;;;13.96;75.75
69171;BME280;56279;47.902;12.308;2023-06-01T01:33:19;95406.13;;;13.93;76.37
69171;BME280;56279;47.902;12.308;2023-06-01T01:35:23;95409.38;;;13.90;76.63
69171;BME280;56279;47.902;12.308;2023-06-01T01:37:25;95406.50;;;13.86;76.73
69171;BME280;56279;47.902;12.308;2023-06-01T01:39:26;95412.41;;;13.83;77.02
69171;BME280;56279;47.902;12.308;2023-06-01T01:41:28;95411.94;;;13.81;77.30
69171;BME280;56279;47.902;12.308;2023-06-01T01:43:30;95408.75;;;13.79;77.44
69171;BME280;56279;47.902;12.308;2023-06-01T01:45:32;95411.72;;;13.78;77.48
69171;BME280;56279;47.902;12.308;2023-06-01T01:47:38;95413.09;;;13.75;77.31
69171;BME280;56279;47.902;12.308;2023-06-01T01:49:51;95403.66;;;13.69;77.35
69171;BME280;56279;47.902;12.308;2023-06-01T01:53:59;95402.28;;;13.72;77.21
69171;BME280;56279;47.902;12.308;2023-06-01T01:56:01;95406.22;;;13.74;77.37
69171;BME280;56279;47.902;12.308;2023-06-01T01:58:04;95403.28;;;13.76;77.44
69171;BME280;56279;47.902;12.308;2023-06-01T02:00:06;95404.06;;;13.76;77.47
69171;BME280;56279;47.902;12.308;2023-06-01T02:02:15;95406.22;;;13.74;77.79
69171;BME280;56279;47.902;12.308;2023-06-01T02:04:16;95406.81;;;13.71;77.62
69171;BME280;56279;47.902;12.308;2023-06-01T02:06:18;95402.38;;;13.67;77.84
69171;BME280;56279;47.902;12.308;2023-06-01T02:08:20;95401.91;;;13.65;78.07
69171;BME280;56279;47.902;12.308;2023-06-01T02:10:21;95405.91;;;13.62;78.14
69171;BME280;56279;47.902;12.308;2023-06-01T02:12:22;95401.97;;;13.60;78.36
69171;BME280;56279;47.902;12.308;2023-06-01T02:14:24;95399.59;;;13.58;78.47
69171;BME280;56279;47.902;12.308;2023-06-01T02:16:26;95396.94;;;13.58;78.44
69171;BME280;56279;47.902;12.308;2023-06-01T02:18:27;95389.78;;;13.59;78.50
69171;BME280;56279;47.902;12.308;2023-06-01T02:20:30;95395.09;;;13.59;78.27
69171;BME280;56279;47.902;12.308;2023-06-01T02:22:31;95385.59;;;13.58;78.59
69171;BME280;56279;47.902;12.308;2023-06-01T02:24:33;95390.88;;;13.58;78.67
69171;BME280;56279;47.902;12.308;2023-06-01T02:26:34;95386.66;;;13.57;78.56
69171;BME280;56279;47.902;12.308;2023-06-01T02:28:37;95393.63;;;13.53;78.79
69171;BME280;56279;47.902;12.308;2023-06-01T02:30:42;95397.66;;;13.50;78.97
69171;BME280;56279;47.902;12.308;2023-06-01T02:32:43;95391.53;;;13.50;79.00
69171;BME280;56279;47.902;12.308;2023-06-01T02:34:49;95399.00;;;13.48;79.07
69171;BME280;56279;47.902;12.308;2023-06-01T02:36:51;95399.31;;;13.46;79.60
69171;BME280;56279;47.902;12.308;2023-06-01T02:38:56;95394.59;;;13.43;79.53
69171;BME280;56279;47.902;12.308;2023-06-01T02:40:58;95398.59;;;13.41;79.43
69171;BME280;56279;47.902;12.308;2023-06-01T02:42:59;95408.72;;;13.39;79.59
69171;BME280;56279;47.902;12.308;2023-06-01T02:45:00;95408.22;;;13.37;79.59
69171;BME280;56279;47.902;12.308;2023-06-01T02:47:05;95404.56;;;13.33;79.55
69171;BME280;56279;47.902;12.308;2023-06-01T02:49:06;95409.38;;;13.31;79.51
69171;BME280;56279;47.902;12.308;2023-06-01T02:51:08;95400.44;;;13.27;79.82
69171;BME280;56279;47.902;12.308;2023-06-01T02:53:09;95398.44;;;13.18;79.99
69171;BME280;56279;47.902;12.308;2023-06-01T02:55:12;95404.34;;;13.15;80.22
69171;BME280;56279;47.902;12.308;2023-06-01T02:57:36;95398.81;;;13.12;80.28
69171;BME280;56279;47.902;12.308;2023-06-01T02:59:40;95403.94;;;13.08;80.42
69171;BME280;56279;47.902;12.308;2023-06-01T03:01:41;95400.00;;;13.06;80.54
69171;BME280;56279;47.902;12.308;2023-06-01T03:03:43;95396.56;;;13.05;80.87
69171;BME280;56279;47.902;12.308;2023-06-01T03:05:45;95396.81;;;13.04;80.92
69171;BME280;56279;47.902;12.308;2023-06-01T03:08:21;95396.03;;;13.03;80.89
69171;BME280;56279;47.902;12.308;2023-06-01T03:10:22;95396.03;;;13.03;81.03
69171;BME280;56279;47.902;12.308;2023-06-01T03:12:36;95403.19;;;13.03;81.07
69171;BME280;56279;47.902;12.308;2023-06-01T03:14:38;95411.13;;;13.03;81.58
69171;BME280;56279;47.902;12.308;2023-06-01T03:16:39;95408.78;;;13.01;81.64
69171;BME280;56279;47.902;12.308;2023-06-01T03:19:01;95406.41;;;13.00;81.60
69171;BME280;56279;47.902;12.308;2023-06-01T03:21:02;95400.34;;;12.99;81.54
69171;BME280;56279;47.902;12.308;2023-06-01T03:23:03;95403.75;;;13.00;81.93
69171;BME280;56279;47.902;12.308;2023-06-01T03:25:05;95403.75;;;13.00;81.79
69171;BME280;56279;47.902;12.308;2023-06-01T03:27:08;95414.88;;;13.02;82.24
69171;BME280;56279;47.902;12.308;2023-06-01T03:29:13;95417.53;;;13.02;82.03
69171;BME280;56279;47.902;12.308;2023-06-01T03:31:14;95417.22;;;13.03;81.92
69171;BME280;56279;47.902;12.308;2023-06-01T03:33:20;95418.81;;;13.04;81.90
69171;BME280;56279;47.902;12.308;2023-06-01T03:35:22;95426.75;;;13.04;81.58
69171;BME280;56279;47.902;12.308;2023-06-01T03:37:24;95426.25;;;13.02;82.03
69171;BME280;56279;47.902;12.308;2023-06-01T03:39:25;95427.03;;;13.03;81.94
69171;BME280;56279;47.902;12.308;2023-06-01T03:41:26;95427.81;;;13.03;81.80
69171;BME280;56279;47.902;12.308;2023-06-01T03:43:28;95429.94;;;13.06;81.71
69171;BME280;56279;47.902;12.308;2023-06-01T03:45:29;95428.56;;;13.09;81.68
69171;BME280;56279;47.902;12.308;2023-06-01T03:47:32;95429.06;;;13.11;81.85
69171;BME280;56279;47.902;12.308;2023-06-01T03:49:34;95431.13;;;13.14;81.86
69171;BME280;56279;47.902;12.308;2023-06-01T03:51:38;95429.47;;;13.18;81.50
69171;BME280;56279;47.902;12.308;2023-06-01T03:53:41;95432.31;;;13.22;81.70
69171;BME280;56279;47.902;12.308;2023-06-01T03:55:43;95425.66;;;13.24;81.23
69171;BME280;56279;47.902;12.308;2023-06-01T03:58:04;95433.53;;;13.29;81.40
69171;BME280;56279;47.902;12.308;2023-06-01T04:00:08;95423.91;;;13.33;81.28
69171;BME280;56279;47.902;12.308;2023-06-01T04:02:25;95430.72;;;13.39;81.38
69171;BME280;56279;47.902;12.308;2023-06-01T04:04:28;95424.53;;;13.44;81.14
69171;BME280;56279;47.902;12.308;2023-06-01T04:06:30;95423.66;;;13.48;81.06
69171;BME280;56279;47.902;12.308;2023-06-01T04:08:36;95425.94;;;13.55;81.18
69171;BME280;56279;47.902;12.308;2023-06-01T04:10:39;95416.03;;;13.60;80.92
69171;BME280;56279;47.902;12.308;2023-06-01T04:12:42;95423.28;;;13.68;80.95
69171;BME280;56279;47.902;12.308;2023-06-01T04:14:45;95420.06;;;13.85;80.66
69171;BME280;56279;47.902;12.308;2023-06-01T04:16:46;95417.13;;;14.00;80.00
69171;BME280;56279;47.902;12.308;2023-06-01T04:18:47;95413.97;;;14.12;79.96
69171;BME280;56279;47.902;12.308;2023-06-01T04:20:52;95422.81;;;14.21;80.03
69171;BME280;56279;47.902;12.308;2023-06-01T04:22:53;95418.41;;;14.30;79.70
69171;BME280;56279;47.902;12.308;2023-06-01T04:24:55;95416.63;;;14.39;79.90
69171;BME280;56279;47.902;12.308;2023-06-01T04:26:57;95418.06;;;14.45;78.93
69171;BME280;56279;47.902;12.308;2023-06-01T04:29:00;95423.28;;;14.50;78.07
69171;BME280;56279;47.902;12.308;2023-06-01T04:31:02;95430.56;;;14.58;77.42
69171;BME280;56279;47.902;12.308;2023-06-01T04:33:04;95432.38;;;14.71;77.08
69171;BME280;56279;47.902;12.308;2023-06-01T04:35:10;95429.25;;;14.91;76.31
69171;BME280;56279;47.902;12.308;2023-06-01T04:37:11;95428.22;;;15.14;75.85
69171;BME280;56279;47.902;12.308;2023-06-01T04:39:13;95432.53;;;15.33;75.01
69171;BME280;56279;47.902;12.308;2023-06-01T04:41:15;95426.00;;;15.39;74.99
69171;BME280;56279;47.902;12.308;2023-06-01T04:43:17;95420.56;;;15.44;74.78
69171;BME280;56279;47.902;12.308;2023-06-01T04:45:20;95423.13;;;15.49;74.47
69171;BME280;56279;47.902;12.308;2023-06-01T04:47:21;95423.47;;;15.56;74.42
69171;BME280;56279;47.902;12.308;2023-06-01T04:49:26;95424.44;;;15.60;74.40
69171;BME280;56279;47.902;12.308;2023-06-01T04:51:29;95424.91;;;15.62;74.16
69171;BME280;56279;47.902;12.308;2023-06-01T04:53:32;95417.72;;;15.62;74.39
69171;BME280;56279;47.902;12.308;2023-06-01T04:55:33;95424.63;;;15.63;74.07
69171;BME280;56279;47.902;12.308;2023-06-01T04:57:35;95427.44;;;15.67;74.02
69171;BME280;56279;47.902;12.308;2023-06-01T04:59:40;95429.50;;;15.70;74.00
69171;BME280;56279;47.902;12.308;2023-06-01T05:01:41;95425.44;;;15.72;74.26
69171;BME280;56279;47.902;12.308;2023-06-01T05:03:44;95423.53;;;15.73;73.86
69171;BME280;56279;47.902;12.308;2023-06-01T05:05:46;95416.06;;;15.75;74.25
69171;BME280;56279;47.902;12.308;2023-06-01T05:07:48;95410.75;;;15.75;73.64
69171;BME280;56279;47.902;12.308;2023-06-01T05:09:51;95418.72;;;15.75;73.36
69171;BME280;56279;47.902;12.308;2023-06-01T05:11:52;95420.41;;;15.71;73.62
69171;BME280;56279;47.902;12.308;2023-06-01T05:13:53;95425.88;;;15.66;73.57
69171;BME280;56279;47.902;12.308;2023-06-01T05:15:59;95426.00;;;15.61;73.89
69171;BME280;56279;47.902;12.308;2023-06-01T05:18:00;95419.13;;;15.60;73.71
69171;BME280;56279;47.902;12.308;2023-06-01T05:20:02;95428.19;;;15.59;74.07
69171;BME280;56279;47.902;12.308;2023-06-01T05:22:04;95426.13;;;15.56;73.99
69171;BME280;56279;47.902;12.308;2023-06-01T05:24:07;95424.88;;;15.53;73.95
69171;BME280;56279;47.902;12.308;2023-06-01T05:26:08;95433.16;;;15.52;74.06
69171;BME280;56279;47.902;12.308;2023-06-01T05:28:10;95433.44;;;15.50;73.94
69171;BME280;56279;47.902;12.308;2023-06-01T05:30:16;95431.59;;;15.51;74.06
69171;BME280;56279;47.902;12.308;2023-06-01T05:32:20;95432.06;;;15.53;74.02
69171;BME280;56279;47.902;12.308;2023-06-01T05:34:21;95430.19;;;15.53;74.26
69171;BME280;56279;47.902;12.308;2023-06-01T05:36:24;95428.31;;;15.54;74.54
69171;BME280;56279;47.902;12.308;2023-06-01T05:38:25;95425.34;;;15.55;74.65
69171;BME280;56279;47.902;12.308;2023-06-01T05:40:27;95426.31;;;15.59;74.19
69171;BME280;56279;47.902;12.308;2023-06-01T05:42:28;95423.03;;;15.62;74.37
69171;BME280;56279;47.902;12.308;2023-06-01T05:44:31;95434.94;;;15.65;74.12
69171;BME280;56279;47.902;12.308;2023-06-01T05:46:32;95424.00;;;15.66;74.42
69171;BME280;56279;47.902;12.308;2023-06-01T05:48:36;95428.56;;;15.66;74.69
69171;BME280;56279;47.902;12.308;2023-06-01T05:50:37;95427.91;;;15.69;74.67
69171;BME280;56279;47.902;12.308;2023-06-01T05:52:40;95434.03;;;15.69;74.71
69171;BME280;56279;47.902;12.308;2023-06-01T05:54:43;95423.06;;;15.71;75.12
69171;BME280;56279;47.902;12.308;2023-06-01T05:56:45;95421.69;;;15.73;75.08
69171;BME280;56279;47.902;12.308;2023-06-01T05:58:48;95423.25;;;15.74;75.12
69171;BME280;56279;47.902;12.308;2023-06-01T06:00:54;95426.06;;;15.78;75.04
69171;BME280;56279;47.902;12.308;2023-06-01T06:02:55;95430.19;;;15.84;75.27
69171;BME280;56279;47.902;12.308;2023-06-01T06:04:56;95425.03;;;15.87;75.16
69171;BME280;56279;47.902;12.308;2023-06-01T06:06:57;95426.78;;;15.92;75.16
69171;BME280;56279;47.902;12.308;2023-06-01T06:09:00;95430.41;;;15.96;75.38
69171;BME280;56279;47.902;12.308;2023-06-01T06:11:01;95423.97;;;15.97;75.20
69171;BME280;56279;47.902;12.308;2023-06-01T06:13:03;95431.81;;;16.02;75.21
69171;BME280;56279;47.902;12.308;2023-06-01T06:15:05;95427.63;;;16.10;75.40
69171;BME280;56279;47.902;12.308;2023-06-01T06:17:06;95435.78;;;16.13;74.77
69171;BME280;56279;47.902;12.308;2023-06-01T06:19:07;95440.50;;;16.16;74.31
69171;BME280;56279;47.902;12.308;2023-06-01T06:21:09;95444.09;;;16.20;74.22
69171;BME280;56279;47.902;12.308;2023-06-01T06:23:10;95448.81;;;16.23;74.09
69171;BME280;56279;47.902;12.308;2023-06-01T06:25:12;95450.38;;;16.24;74.09
69171;BME280;56279;47.902;12.308;2023-06-01T06:27:13;95448.50;;;16.25;74.26
69171;BME280;56279;47.902;12.308;2023-06-01T06:29:15;95446.00;;;16.28;74.25
69171;BME280;56279;47.902;12.308;2023-06-01T06:31:16;95448.03;;;16.31;74.20
69171;BME280;56279;47.902;12.308;2023-06-01T06:33:17;95451.22;;;16.33;73.97
69171;BME280;56279;47.902;12.308;2023-06-01T06:35:19;95439.16;;;16.36;73.78
69171;BME280;56279;47.902;12.308;2023-06-01T06:37:20;95441.19;;;16.39;73.39
69171;BME280;56279;47.902;12.308;2023-06-01T06:39:21;95441.66;;;16.41;73.20
69171;BME280;56279;47.902;12.308;2023-06-01T06:41:23;95441.34;;;16.42;72.68
69171;BME280;56279;47.902;12.308;2023-06-01T06:43:24;95440.25;;;16.43;72.36
69171;BME280;56279;47.902;12.308;2023-06-01T06:45:26;95445.28;;;16.45;72.54
69171;BME280;56279;47.902;12.308;2023-06-01T06:47:27;95447.63;;;16.46;72.37
69171;BME280;56279;47.902;12.308;2023-06-01T06:49:28;95443.09;;;16.47;72.44
69171;BME280;56279;47.902;12.308;2023-06-01T06:51:30;95451.22;;;16.50;72.36
69171;BME280;56279;47.902;12.308;2023-06-01T06:53:31;95447.97;;;16.53;72.12
69171;BME280;56279;47.902;12.308;2023-06-01T06:55:34;95447.06;;;16.58;71.98
69171;BME280;56279;47.902;12.308;2023-06-01T06:57:35;95446.44;;;16.61;71.84
69171;BME280;56279;47.902;12.308;2023-06-01T06:59:36;95456.44;;;16.64;71.71
69171;BME280;56279;47.902;12.308;2023-06-01T07:01:39;95445.03;;;16.64;71.74
69171;BME280;56279;47.902;12.308;2023-06-01T07:03:40;95452.38;;;16.67;71.87
69171;BME280;56279;47.902;12.308;2023-06-01T07:05:42;95454.13;;;16.71;71.98
69171;BME280;56279;47.902;12.308;2023-06-01T07:07:45;95453.19;;;16.76;71.97
69171;BME280;56279;47.902;12.308;2023-06-01T07:09:47;95454.63;;;16.82;71.26
69171;BME280;56279;47.902;12.308;2023-06-01T07:11:48;95457.59;;;16.89;71.52
69171;BME280;56279;47.902;12.308;2023-06-01T07:13:50;95455.88;;;16.93;71.44
69171;BME280;56279;47.902;12.308;2023-06-01T07:15:52;95456.81;;;16.97;71.27
69171;BME280;56279;47.902;12.308;2023-06-01T07:17:54;95456.97;;;17.00;71.26
69171;BME280;56279;47.902;12.308;2023-06-01T07:19:55;95456.03;;;17.05;71.59
69171;BME280;56279;47.902;12.308;2023-06-01T07:21:56;95454.16;;;17.14;71.12
69171;BME280;56279;47.902;12.308;2023-06-01T07:23:58;95454.47;;;17.21;71.06
69171;BME280;56279;47.902;12.308;2023-06-01T07:25:59;95453.19;;;17.27;70.81
69171;BME280;56279;47.902;12.308;2023-06-01T07:28:01;95453.81;;;17.33;70.52
69171;BME280;56279;47.902;12.308;2023-06-01T07:30:08;95456.94;;;17.35;70.46
69171;BME280;56279;47.902;12.308;2023-06-01T07:32:10;95457.41;;;17.37;70.49
69171;BME280;56279;47.902;12.308;2023-06-01T07:34:11;95461.50;;;17.43;70.09
69171;BME280;56279;47.902;12.308;2023-06-01T07:36:12;95463.38;;;17.51;70.02
69171;BME280;56279;47.902;12.308;2023-06-01T07:38:15;95456.81;;;17.57;70.00
69171;BME280;56279;47.902;12.308;2023-06-01T07:40:16;95457.72;;;17.61;69.66
69171;BME280;56279;47.902;12.308;2023-06-01T07:42:18;95453.66;;;17.63;69.52
69171;BME280;56279;47.902;12.308;2023-06-01T07:44:20;95450.66;;;17.65;69.19
69171;BME280;56279;47.902;12.308;2023-06-01T07:46:21;95453.50;;;17.68;69.19
69171;BME280;56279;47.902;12.308;2023-06-01T07:48:23;95451.75;;;17.72;69.12
69171;BME280;56279;47.902;12.308;2023-06-01T07:50:24;95450.44;;;17.78;68.83
69171;BME280;56279;47.902;12.308;2023-06-01T07:52:29;95452.97;;;17.83;68.06
69171;BME280;56279;47.902;12.308;2023-06-01T07:54:31;95459.38;;;17.91;67.39
69171;BME280;56279;47.902;12.308;2023-06-01T07:56:32;95451.66;;;17.98;67.13
69171;BME280;56279;47.902;12.308;2023-06-01T07:58:33;95460.28;;;18.04;66.52
69171;BME280;56279;47.902;12.308;2023-06-01T08:00:35;95464.69;;;18.08;66.25
69171;BME280;56279;47.902;12.308;2023-06-01T08:02:36;95454.13;;;18.12;66.47
69171;BME280;56279;47.902;12.308;2023-06-01T08:04:38;95452.97;;;18.21;66.55
69171;BME280;56279;47.902;12.308;2023-06-01T08:06:39;95446.59;;;18.43;65.73
69171;BME280;56279;47.902;12.308;2023-06-01T08:08:42;95448.34;;;18.68;65.05
69171;BME280;56279;47.902;12.308;2023-06-01T08:10:43;95450.84;;;18.94;64.06
69171;BME280;56279;47.902;12.308;2023-06-01T08:12:45;95452.88;;;19.17;63.81
69171;BME280;56279;47.902;12.308;2023-06-01T08:14:49;95445.19;;;19.37;63.49
69171;BME280;56279;47.902;12.308;2023-06-01T08:16:50;95444.91;;;19.50;63.42
69171;BME280;56279;47.902;12.308;2023-06-01T08:18:54;95446.03;;;19.61;63.09
69171;BME280;56279;47.902;12.308;2023-06-01T08:20:57;95442.50;;;19.69;62.99
69171;BME280;56279;47.902;12.308;2023-06-01T08:23:01;95446.97;;;19.77;62.59
69171;BME280;56279;47.902;12.308;2023-06-01T08:25:04;95442.00;;;19.88;62.34
69171;BME280;56279;47.902;12.308;2023-06-01T08:27:20;95442.91;;;20.04;61.73
69171;BME280;56279;47.902;12.308;2023-06-01T08:29:22;95446.06;;;20.18;60.72
69171;BME280;56279;47.902;12.308;2023-06-01T08:31:24;95451.31;;;20.27;58.78
69171;BME280;56279;47.902;12.308;2023-06-01T08:33:25;95442.94;;;20.28;59.26
69171;BME280;56279;47.902;12.308;2023-06-01T08:35:27;95444.50;;;20.29;58.20
69171;BME280;56279;47.902;12.308;2023-06-01T08:37:29;95443.28;;;20.27;58.33
69171;BME280;56279;47.902;12.308;2023-06-01T08:39:31;95435.59;;;20.25;58.26
69171;BME280;56279;47.902;12.308;2023-06-01T08:43:36;95439.03;;;20.50;59.11
69171;BME280;56279;47.902;12.308;2023-06-01T08:45:41;95431.78;;;20.62;58.22
69171;BME280;56279;47.902;12.308;2023-06-01T08:47:45;95434.75;;;20.73;57.54
69171;BME280;56279;47.902;12.308;2023-06-01T08:49:47;95433.06;;;20.81;57.10
69171;BME280;56279;47.902;12.308;2023-06-01T08:51:51;95431.50;;;20.80;57.77
69171;BME280;56279;47.902;12.308;2023-06-01T08:53:57;95431.84;;;20.90;57.66
69171;BME280;56279;47.902;12.308;2023-06-01T08:55:58;95436.53;;;20.93;57.20
69171;BME280;56279;47.902;12.308;2023-06-01T08:58:00;95431.81;;;21.02;57.17
69171;BME280;56279;47.902;12.308;2023-06-01T09:00:01;95434.50;;;21.02;56.98
69171;BME280;56279;47.902;12.308;2023-06-01T09:02:03;95436.19;;;21.07;56.75
69171;BME280;56279;47.902;12.308;2023-06-01T09:04:05;95438.13;;;21.22;56.47
69171;BME280;56279;47.902;12.308;2023-06-01T09:06:06;95430.03;;;21.34;55.96
69171;BME280;56279;47.902;12.308;2023-06-01T09:08:08;95427.47;;;21.38;55.81
69171;BME280;56279;47.902;12.308;2023-06-01T09:10:11;95423.75;;;21.42;55.64
69171;BME280;56279;47.902;12.308;2023-06-01T09:14:22;95424.66;;;21.34;56.55
69171;BME280;56279;47.902;12.308;2023-06-01T09:16:35;95425.41;;;21.47;57.05
69171;BME280;56279;47.902;12.308;2023-06-01T09:18:50;95414.25;;;21.60;56.20
69171;BME280;56279;47.902;12.308;2023-06-01T09:20:53;95418.06;;;21.59;55.68
69171;BME280;56279;47.902;12.308;2023-06-01T09:22:55;95419.19;;;21.58;56.08
69171;BME280;56279;47.902;12.308;2023-06-01T09:24:58;95416.25;;;21.63;56.06
69171;BME280;56279;47.902;12.308;2023-06-01T09:27:00;95416.69;;;21.65;56.01
69171;BME280;56279;47.902;12.308;2023-06-01T09:29:01;95411.75;;;21.67;56.27
69171;BME280;56279;47.902;12.308;2023-06-01T09:31:04;95411.84;;;21.71;55.32
69171;BME280;56279;47.902;12.308;2023-06-01T09:33:09;95410.13;;;21.78;55.86
69171;BME280;56279;47.902;12.308;2023-06-01T09:35:11;95411.91;;;21.86;55.68
69171;BME280;56279;47.902;12.308;2023-06-01T09:37:12;95412.22;;;21.85;54.96
69171;BME280;56279;47.902;12.308;2023-06-01T09:39:19;95414.19;;;21.72;55.62
69171;BME280;56279;47.902;12.308;2023-06-01T09:41:21;95409.00;;;21.79;56.10
69171;BME280;56279;47.902;12.308;2023-06-01T09:43:23;95402.44;;;21.92;55.90
69171;BME280;56279;47.902;12.308;2023-06-01T09:45:26;95405.06;;;22.05;54.33
69171;BME280;56279;47.902;12.308;2023-06-01T09:47:28;95405.06;;;22.05;54.61
69171;BME280;56279;47.902;12.308;2023-06-01T09:49:30;95397.66;;;22.01;53.62
69171;BME280;56279;47.902;12.308;2023-06-01T09:51:31;95397.34;;;22.03;53.95
69171;BME280;56279;47.902;12.308;2023-06-01T09:53:43;95400.28;;;21.98;53.82
69171;BME280;56279;47.902;12.308;2023-06-01T09:56:07;95399.16;;;21.99;53.98
69171;BME280;56279;47.902;12.308;2023-06-01T09:58:21;95397.50;;;22.10;53.06
69171;BME280;56279;47.902;12.308;2023-06-01T10:00:24;95397.31;;;22.19;53.59
69171;BME280;56279;47.902;12.308;2023-06-01T10:02:25;95396.44;;;22.30;51.73
69171;BME280;56279;47.902;12.308;2023-06-01T10:04:28;95393.13;;;22.37;51.98
69171;BME280;56279;47.902;12.308;2023-06-01T10:06:32;95394.78;;;22.41;52.97
69171;BME280;56279;47.902;12.308;2023-06-01T10:08:35;95388.00;;;22.47;52.95
69171;BME280;56279;47.902;12.308;2023-06-01T10:10:36;95387.38;;;22.54;52.04
69171;BME280;56279;47.902;12.308;2023-06-01T10:12:38;95385.19;;;22.59;51.97
69171;BME280;56279;47.902;12.308;2023-06-01T10:14:39;95391.03;;;22.61;51.72
69171;BME280;56279;47.902;12.308;2023-06-01T10:16:41;95384.31;;;22.71;51.75
69171;BME280;56279;47.902;12.308;2023-06-01T10:18:44;95392.97;;;22.80;51.04
69171;BME280;56279;47.902;12.308;2023-06-01T10:20:46;95381.50;;;22.83;51.01
69171;BME280;56279;47.902;12.308;2023-06-01T10:22:48;95385.34;;;22.82;51.08
69171;BME280;56279;47.902;12.308;2023-06-01T10:24:54;95372.31;;;22.84;51.66
69171;BME280;56279;47.902;12.308;2023-06-01T10:29:21;95374.59;;;22.82;51.98
69171;BME280;56279;47.902;12.308;2023-06-01T10:31:41;95379.31;;;22.89;52.54
69171;BME280;56279;47.902;12.308;2023-06-01T10:33:53;95369.03;;;22.94;50.15
69171;BME280;56279;47.902;12.308;2023-06-01T10:35:55;95375.56;;;22.93;50.16
69171;BME280;56279;47.902;12.308;2023-06-01T10:44:45;95371.25;;;23.08;50.15
69171;BME280;56279;47.902;12.308;2023-06-01T10:46:48;95369.31;;;23.08;50.20
69171;BME280;56279;47.902;12.308;2023-06-01T10:48:54;95364.72;;;23.09;50.35
69171;BME280;56279;47.902;12.308;2023-06-01T10:51:18;95367.28;;;23.02;49.90
69171;BME280;56279;47.902;12.308;2023-06-01T10:55:25;95360.41;;;23.04;49.51
69171;BME280;56279;47.902;12.308;2023-06-01T10:57:27;95366.72;;;23.12;49.09
69171;BME280;56279;47.902;12.308;2023-06-01T10:59:28;95366.78;;;23.15;49.22
69171;BME280;56279;47.902;12.308;2023-06-01T11:01:30;95369.19;;;23.20;48.78
69171;BME280;56279;47.902;12.308;2023-06-01T11:03:45;95356.56;;;23.24;48.33
69171;BME280;56279;47.902;12.308;2023-06-01T11:05:47;95358.53;;;23.27;47.23